createdAt,value
2018-02-27T00:00:25.575Z,0
2018-02-27T00:01:06.089Z,0
2018-02-27T00:01:46.600Z,0
2018-02-27T00:02:27.117Z,0
2018-02-27T00:03:07.621Z,0
2018-02-27T00:03:48.197Z,0
2018-02-27T00:04:28.762Z,0
2018-02-27T00:05:09.299Z,0
2018-02-27T00:05:49.969Z,0
2018-02-27T00:06:30.382Z,0
2018-02-27T00:07:10.866Z,0
2018-02-27T00:07:51.385Z,0
2018-02-27T00:08:31.898Z,0
2018-02-27T00:09:12.433Z,0
2018-02-27T00:09:52.954Z,0
2018-02-27T00:10:33.464Z,0
2018-02-27T00:11:14.001Z,0
2018-02-27T00:11:54.633Z,0
2018-02-27T00:12:35.139Z,0
2018-02-27T00:13:15.644Z,0
2018-02-27T00:13:56.184Z,0
2018-02-27T00:14:36.691Z,0
2018-02-27T00:15:17.210Z,0
2018-02-27T00:15:57.739Z,0
2018-02-27T00:16:38.241Z,0
2018-02-27T00:17:18.771Z,0
2018-02-27T00:17:59.264Z,0
2018-02-27T00:18:39.789Z,0
2018-02-27T00:19:20.292Z,0
2018-02-27T00:20:00.812Z,0
2018-02-27T00:20:41.326Z,0
2018-02-27T00:21:21.840Z,0
2018-02-27T00:22:02.352Z,0
2018-02-27T00:22:42.854Z,0
2018-02-27T00:23:23.384Z,0
2018-02-27T00:24:03.901Z,0
2018-02-27T00:24:44.423Z,0
2018-02-27T00:25:24.921Z,0
2018-02-27T00:26:05.430Z,0
2018-02-27T00:26:45.958Z,0
2018-02-27T00:27:26.474Z,0
2018-02-27T00:28:07.002Z,0
2018-02-27T00:28:47.527Z,0
2018-02-27T00:29:28.034Z,0
2018-02-27T00:30:08.549Z,0
2018-02-27T00:30:49.113Z,0
2018-02-27T00:31:29.566Z,0
2018-02-27T00:32:10.329Z,0
2018-02-27T00:32:50.810Z,0
2018-02-27T00:33:31.281Z,0
2018-02-27T00:34:11.800Z,0
2018-02-27T00:34:52.334Z,0
2018-02-27T00:35:32.840Z,0
2018-02-27T00:36:13.349Z,0
2018-02-27T00:36:53.866Z,0
2018-02-27T00:37:34.409Z,0
2018-02-27T00:38:14.960Z,0
2018-02-27T00:38:55.455Z,0
2018-02-27T00:39:35.976Z,0
2018-02-27T00:40:16.465Z,0
2018-02-27T00:40:56.967Z,0
2018-02-27T00:41:37.478Z,0
2018-02-27T00:42:18.010Z,0
2018-02-27T00:42:58.511Z,0
2018-02-27T00:43:39.021Z,0
2018-02-27T00:44:19.534Z,0
2018-02-27T00:45:00.237Z,0
2018-02-27T00:45:40.677Z,0
2018-02-27T00:46:21.213Z,0
2018-02-27T00:47:01.704Z,0
2018-02-27T00:47:42.234Z,0
2018-02-27T00:48:22.754Z,0
2018-02-27T00:49:03.267Z,0
2018-02-27T00:49:43.794Z,0
2018-02-27T00:50:24.304Z,0
2018-02-27T00:51:04.820Z,0
2018-02-27T00:51:45.358Z,0
2018-02-27T00:52:25.906Z,0
2018-02-27T00:53:06.417Z,0
2018-02-27T00:53:46.949Z,0
2018-02-27T00:54:27.471Z,0
2018-02-27T00:55:07.991Z,0
2018-02-27T00:55:48.502Z,0
2018-02-27T00:56:29.004Z,0
2018-02-27T00:57:09.511Z,0
2018-02-27T00:57:50.021Z,0
2018-02-27T00:58:30.533Z,0
2018-02-27T00:59:11.044Z,0
2018-02-27T00:59:51.565Z,0
2018-02-27T01:00:32.074Z,0
2018-02-27T01:01:12.582Z,0
2018-02-27T01:01:53.087Z,0
2018-02-27T01:02:33.601Z,0
2018-02-27T01:03:14.121Z,0
2018-02-27T01:03:54.611Z,0
2018-02-27T01:04:35.158Z,0
2018-02-27T01:05:15.815Z,0
2018-02-27T01:05:56.175Z,0
2018-02-27T01:06:36.692Z,0
2018-02-27T01:07:17.193Z,0
2018-02-27T01:07:57.719Z,0
2018-02-27T01:08:38.241Z,0
2018-02-27T01:09:18.761Z,0
2018-02-27T01:09:59.272Z,0
2018-02-27T01:10:39.880Z,0
2018-02-27T01:11:20.403Z,0
2018-02-27T01:12:00.966Z,0
2018-02-27T01:12:41.582Z,0
2018-02-27T01:13:22.109Z,0
2018-02-27T01:14:02.686Z,0
2018-02-27T01:14:43.196Z,0
2018-02-27T01:15:23.707Z,0
2018-02-27T01:16:04.212Z,0
2018-02-27T01:16:44.731Z,0
2018-02-27T01:17:25.240Z,0
2018-02-27T01:18:05.746Z,0
2018-02-27T01:18:46.266Z,0
2018-02-27T01:19:26.774Z,0
2018-02-27T01:20:07.291Z,0
2018-02-27T01:20:47.830Z,0
2018-02-27T01:21:28.336Z,0
2018-02-27T01:22:08.882Z,0
2018-02-27T01:22:49.382Z,0
2018-02-27T01:23:29.899Z,0
2018-02-27T01:24:10.414Z,0
2018-02-27T01:24:50.907Z,0
2018-02-27T01:25:31.408Z,0
2018-02-27T01:26:11.923Z,0
2018-02-27T01:26:52.474Z,0
2018-02-27T01:27:32.980Z,0
2018-02-27T01:28:13.505Z,0
2018-02-27T01:28:54.001Z,0
2018-02-27T01:29:34.516Z,0
2018-02-27T01:30:15.023Z,0
2018-02-27T01:30:55.535Z,0
2018-02-27T01:31:36.044Z,0
2018-02-27T01:32:16.555Z,0
2018-02-27T01:32:57.073Z,0
2018-02-27T01:33:37.591Z,0
2018-02-27T01:34:18.174Z,0
2018-02-27T01:34:58.717Z,0
2018-02-27T01:35:39.228Z,0
2018-02-27T01:36:19.749Z,0
2018-02-27T01:37:00.250Z,0
2018-02-27T01:37:40.756Z,0
2018-02-27T01:38:21.264Z,0
2018-02-27T01:39:01.762Z,0
2018-02-27T01:39:42.271Z,0
2018-02-27T01:40:22.791Z,0
2018-02-27T01:41:03.302Z,0
2018-02-27T01:41:43.808Z,0
2018-02-27T01:42:24.330Z,0
2018-02-27T01:43:04.831Z,0
2018-02-27T01:43:45.323Z,0
2018-02-27T01:44:25.828Z,0
2018-02-27T01:45:06.349Z,0
2018-02-27T01:45:46.852Z,0
2018-02-27T01:46:27.364Z,0
2018-02-27T01:47:07.892Z,0
2018-02-27T01:47:48.409Z,0
2018-02-27T01:48:28.926Z,0
2018-02-27T01:49:09.431Z,0
2018-02-27T01:49:49.950Z,0
2018-02-27T01:50:30.467Z,0
2018-02-27T01:51:10.977Z,0
2018-02-27T01:51:51.495Z,0
2018-02-27T01:52:32.016Z,0
2018-02-27T01:53:12.513Z,0
2018-02-27T01:53:53.065Z,0
2018-02-27T01:54:33.643Z,0
2018-02-27T01:55:14.088Z,0
2018-02-27T01:55:54.612Z,0
2018-02-27T01:56:35.114Z,0
2018-02-27T01:57:15.620Z,0
2018-02-27T01:57:56.106Z,0
2018-02-27T01:58:36.626Z,0
2018-02-27T01:59:17.133Z,0
2018-02-27T01:59:57.643Z,0
2018-02-27T02:00:38.141Z,0
2018-02-27T02:01:18.738Z,0
2018-02-27T02:01:59.236Z,0
2018-02-27T02:02:39.764Z,0
2018-02-27T02:03:20.282Z,0
2018-02-27T02:04:00.800Z,0
2018-02-27T02:04:41.322Z,0
2018-02-27T02:05:21.824Z,0
2018-02-27T02:06:02.333Z,0
2018-02-27T02:06:42.841Z,0
2018-02-27T02:07:23.352Z,0
2018-02-27T02:08:03.889Z,0
2018-02-27T02:08:44.416Z,0
2018-02-27T02:09:24.918Z,0
2018-02-27T02:10:05.459Z,0
2018-02-27T02:10:45.982Z,0
2018-02-27T02:11:26.495Z,0
2018-02-27T02:12:07.025Z,0
2018-02-27T02:12:47.538Z,0
2018-02-27T02:13:28.112Z,0
2018-02-27T02:14:08.628Z,0
2018-02-27T02:14:49.137Z,0
2018-02-27T02:15:29.651Z,0
2018-02-27T02:16:10.152Z,0
2018-02-27T02:16:50.708Z,0
2018-02-27T02:17:31.225Z,0
2018-02-27T02:18:11.748Z,0
2018-02-27T02:18:52.259Z,0
2018-02-27T02:19:32.783Z,0
2018-02-27T02:20:13.283Z,0
2018-02-27T02:20:53.795Z,0
2018-02-27T02:21:34.311Z,0
2018-02-27T02:22:14.815Z,0
2018-02-27T02:22:55.329Z,0
2018-02-27T02:23:35.851Z,0
2018-02-27T02:24:16.396Z,0
2018-02-27T02:24:56.900Z,0
2018-02-27T02:25:37.408Z,0
2018-02-27T02:26:17.927Z,0
2018-02-27T02:26:58.445Z,0
2018-02-27T02:27:38.946Z,0
2018-02-27T02:28:19.458Z,0
2018-02-27T02:28:59.959Z,0
2018-02-27T02:29:40.466Z,0
2018-02-27T02:30:20.980Z,0
2018-02-27T02:32:34.249Z,0
2018-02-27T02:33:14.752Z,0
2018-02-27T02:33:55.264Z,0
2018-02-27T02:34:35.769Z,0
2018-02-27T02:35:16.296Z,0
2018-02-27T02:35:56.808Z,0
2018-02-27T02:36:37.318Z,0
2018-02-27T02:37:17.832Z,0
2018-02-27T02:37:58.352Z,0
2018-02-27T02:38:38.855Z,0
2018-02-27T02:39:19.362Z,0
2018-02-27T02:39:59.874Z,0
2018-02-27T02:40:40.383Z,0
2018-02-27T02:41:20.897Z,0
2018-02-27T02:42:01.409Z,0
2018-02-27T02:42:41.898Z,0
2018-02-27T02:43:22.405Z,0
2018-02-27T02:44:02.901Z,0
2018-02-27T02:44:43.414Z,0
2018-02-27T02:45:23.925Z,0
2018-02-27T02:46:04.434Z,0
2018-02-27T02:46:44.947Z,0
2018-02-27T02:47:25.461Z,0
2018-02-27T02:48:05.971Z,0
2018-02-27T02:48:46.483Z,0
2018-02-27T02:49:26.999Z,0
2018-02-27T02:50:07.517Z,0
2018-02-27T02:50:48.018Z,0
2018-02-27T02:51:28.551Z,0
2018-02-27T02:52:09.038Z,0
2018-02-27T02:52:49.551Z,0
2018-02-27T02:53:30.058Z,0
2018-02-27T02:54:10.574Z,0
2018-02-27T02:54:51.084Z,0
2018-02-27T02:55:31.600Z,0
2018-02-27T02:56:12.125Z,0
2018-02-27T02:56:52.593Z,0
2018-02-27T02:57:33.102Z,0
2018-02-27T02:58:13.598Z,0
2018-02-27T02:58:54.115Z,0
2018-02-27T02:59:34.627Z,0
2018-02-27T03:00:15.137Z,0
2018-02-27T03:00:55.643Z,0
2018-02-27T03:01:36.146Z,0
2018-02-27T03:02:16.654Z,0
2018-02-27T03:02:57.171Z,0
2018-02-27T03:03:37.693Z,0
2018-02-27T03:04:18.202Z,0
2018-02-27T03:04:58.708Z,0
2018-02-27T03:05:39.211Z,0
2018-02-27T03:06:19.718Z,0
2018-02-27T03:07:00.225Z,0
2018-02-27T03:07:40.740Z,0
2018-02-27T03:08:21.263Z,0
2018-02-27T03:09:01.772Z,0
2018-02-27T03:09:42.283Z,0
2018-02-27T03:10:22.778Z,0
2018-02-27T03:11:03.293Z,0
2018-02-27T03:11:43.800Z,0
2018-02-27T03:12:24.304Z,0
2018-02-27T03:13:04.821Z,0
2018-02-27T03:13:45.339Z,0
2018-02-27T03:14:25.848Z,0
2018-02-27T03:15:06.354Z,0
2018-02-27T03:15:46.855Z,0
2018-02-27T03:16:27.376Z,0
2018-02-27T03:17:07.893Z,0
2018-02-27T03:17:48.401Z,0
2018-02-27T03:18:28.920Z,0
2018-02-27T03:19:09.449Z,0
2018-02-27T03:19:49.963Z,0
2018-02-27T03:20:30.470Z,0
2018-02-27T03:21:10.973Z,0
2018-02-27T03:21:51.501Z,0
2018-02-27T03:22:32.001Z,0
2018-02-27T03:23:12.518Z,0
2018-02-27T03:23:53.031Z,0
2018-02-27T03:24:33.537Z,0
2018-02-27T03:25:14.039Z,0
2018-02-27T03:25:54.549Z,0
2018-02-27T03:26:35.053Z,0
2018-02-27T03:27:15.569Z,0
2018-02-27T03:27:56.077Z,0
2018-02-27T03:28:36.584Z,0
2018-02-27T03:29:17.096Z,0
2018-02-27T03:29:57.605Z,0
2018-02-27T03:30:38.100Z,0
2018-02-27T03:31:18.622Z,0
2018-02-27T03:31:59.124Z,0
2018-02-27T03:32:39.629Z,0
2018-02-27T03:33:20.130Z,0
2018-02-27T03:34:00.638Z,0
2018-02-27T03:34:41.160Z,0
2018-02-27T03:35:21.661Z,0
2018-02-27T03:36:02.160Z,0
2018-02-27T03:36:42.718Z,0
2018-02-27T03:37:23.247Z,0
2018-02-27T03:38:03.747Z,0
2018-02-27T03:38:44.260Z,0
2018-02-27T03:39:24.775Z,0
2018-02-27T03:40:05.299Z,0
2018-02-27T03:40:45.817Z,0
2018-02-27T03:41:27.165Z,0
2018-02-27T03:42:07.679Z,0
2018-02-27T03:42:48.179Z,0
2018-02-27T03:43:28.685Z,0
2018-02-27T03:44:09.189Z,0
2018-02-27T03:44:49.711Z,0
2018-02-27T03:45:30.211Z,0
2018-02-27T03:46:10.729Z,0
2018-02-27T03:46:51.240Z,0
2018-02-27T03:47:31.744Z,0
2018-02-27T03:48:12.263Z,0
2018-02-27T03:48:52.770Z,0
2018-02-27T03:49:33.283Z,0
2018-02-27T03:50:13.794Z,0
2018-02-27T03:50:54.306Z,0
2018-02-27T03:51:34.836Z,0
2018-02-27T03:52:15.339Z,0
2018-02-27T03:52:55.858Z,0
2018-02-27T03:53:36.359Z,0
2018-02-27T03:54:16.861Z,0
2018-02-27T03:54:57.375Z,0
2018-02-27T03:55:37.894Z,0
2018-02-27T03:56:18.402Z,0
2018-02-27T03:56:58.912Z,0
2018-02-27T03:57:39.438Z,0
2018-02-27T03:58:19.940Z,0
2018-02-27T03:59:00.456Z,0
2018-02-27T03:59:40.962Z,0
2018-02-27T04:00:21.471Z,0
2018-02-27T04:01:01.984Z,0
2018-02-27T04:01:42.508Z,0
2018-02-27T04:02:23.020Z,0
2018-02-27T04:03:03.543Z,0
2018-02-27T04:03:44.054Z,0
2018-02-27T04:04:24.575Z,0
2018-02-27T04:05:05.088Z,0
2018-02-27T04:05:45.585Z,0
2018-02-27T04:06:26.146Z,0
2018-02-27T04:07:06.676Z,0
2018-02-27T04:07:47.176Z,0
2018-02-27T04:08:27.678Z,0
2018-02-27T04:09:08.189Z,0
2018-02-27T04:09:48.694Z,0
2018-02-27T04:10:29.220Z,0
2018-02-27T04:11:09.766Z,0
2018-02-27T04:11:50.297Z,0
2018-02-27T04:12:30.805Z,0
2018-02-27T04:13:11.309Z,0
2018-02-27T04:13:51.821Z,0
2018-02-27T04:14:32.334Z,0
2018-02-27T04:15:12.858Z,0
2018-02-27T04:15:53.370Z,0
2018-02-27T04:16:33.871Z,0
2018-02-27T04:17:14.383Z,0
2018-02-27T04:17:54.886Z,0
2018-02-27T04:18:35.397Z,0
2018-02-27T04:19:15.903Z,0
2018-02-27T04:19:56.445Z,0
2018-02-27T04:20:36.911Z,0
2018-02-27T04:21:17.444Z,0
2018-02-27T04:21:57.941Z,0
2018-02-27T04:22:38.447Z,0
2018-02-27T04:23:18.967Z,0
2018-02-27T04:23:59.491Z,0
2018-02-27T04:24:40.011Z,0
2018-02-27T04:25:20.521Z,0
2018-02-27T04:26:01.031Z,0
2018-02-27T04:26:41.547Z,0
2018-02-27T04:27:22.060Z,0
2018-02-27T04:28:02.559Z,0
2018-02-27T04:28:43.069Z,0
2018-02-27T04:29:23.550Z,0
2018-02-27T04:30:04.088Z,0
2018-02-27T04:30:44.601Z,0
2018-02-27T04:31:25.129Z,0
2018-02-27T04:32:05.635Z,0
2018-02-27T04:32:46.137Z,0
2018-02-27T04:33:26.660Z,0
2018-02-27T04:34:07.166Z,0
2018-02-27T04:34:47.684Z,0
2018-02-27T04:35:28.186Z,0
2018-02-27T04:36:08.696Z,0
2018-02-27T04:36:49.199Z,0
2018-02-27T04:37:29.708Z,0
2018-02-27T04:38:10.221Z,0
2018-02-27T04:38:50.731Z,0
2018-02-27T04:39:31.229Z,0
2018-02-27T04:40:11.753Z,0
2018-02-27T04:40:52.246Z,0
2018-02-27T04:41:32.765Z,0
2018-02-27T04:42:13.276Z,0
2018-02-27T04:42:53.776Z,0
2018-02-27T04:43:34.280Z,0
2018-02-27T04:44:14.801Z,0
2018-02-27T04:44:55.295Z,0
2018-02-27T04:45:35.793Z,0
2018-02-27T04:46:16.304Z,0
2018-02-27T04:46:56.820Z,0
2018-02-27T04:47:37.342Z,0
2018-02-27T04:48:17.851Z,0
2018-02-27T04:48:58.351Z,0
2018-02-27T04:49:38.858Z,0
2018-02-27T04:50:19.404Z,0
2018-02-27T04:50:59.918Z,0
2018-02-27T04:51:40.424Z,0
2018-02-27T04:52:20.932Z,0
2018-02-27T04:53:01.455Z,0
2018-02-27T04:53:41.985Z,0
2018-02-27T04:54:22.498Z,0
2018-02-27T04:55:03.022Z,0
2018-02-27T04:55:43.534Z,0
2018-02-27T04:56:24.038Z,0
2018-02-27T04:57:04.544Z,0
2018-02-27T04:57:45.065Z,0
2018-02-27T04:58:25.565Z,0
2018-02-27T04:59:06.069Z,0
2018-02-27T04:59:46.592Z,0
2018-02-27T05:00:27.094Z,0
2018-02-27T05:01:07.595Z,0
2018-02-27T05:01:48.126Z,0
2018-02-27T05:02:28.629Z,0
2018-02-27T05:03:09.188Z,0
2018-02-27T05:03:49.652Z,0
2018-02-27T05:04:30.149Z,0
2018-02-27T05:05:10.643Z,0
2018-02-27T05:05:51.145Z,0
2018-02-27T05:06:31.651Z,0
2018-02-27T05:07:12.158Z,0
2018-02-27T05:07:52.678Z,0
2018-02-27T05:08:33.224Z,0
2018-02-27T05:09:13.745Z,0
2018-02-27T05:09:54.249Z,0
2018-02-27T05:10:34.754Z,0
2018-02-27T05:11:15.264Z,0
2018-02-27T05:11:55.780Z,0
2018-02-27T05:12:36.299Z,0
2018-02-27T05:13:16.800Z,0
2018-02-27T05:13:57.303Z,0
2018-02-27T05:14:37.810Z,0
2018-02-27T05:15:18.329Z,0
2018-02-27T05:15:58.847Z,0
2018-02-27T05:16:39.379Z,0
2018-02-27T05:17:19.887Z,0
2018-02-27T05:18:00.405Z,0
2018-02-27T05:18:40.918Z,0
2018-02-27T05:19:21.426Z,0
2018-02-27T05:20:01.937Z,0
2018-02-27T05:20:42.445Z,0
2018-02-27T05:21:22.955Z,0
2018-02-27T05:22:03.474Z,0
2018-02-27T05:22:43.991Z,0
2018-02-27T05:23:24.506Z,0
2018-02-27T05:24:05.026Z,0
2018-02-27T05:24:45.533Z,0
2018-02-27T05:25:26.057Z,0
2018-02-27T05:26:06.578Z,0
2018-02-27T05:26:47.087Z,0
2018-02-27T05:27:27.599Z,0
2018-02-27T05:28:08.115Z,0
2018-02-27T05:28:48.634Z,0
2018-02-27T05:29:29.158Z,0
2018-02-27T05:30:09.662Z,0
2018-02-27T05:30:50.177Z,0
2018-02-27T05:31:30.685Z,0
2018-02-27T05:32:11.192Z,0
2018-02-27T05:32:51.720Z,0
2018-02-27T05:33:32.234Z,0
2018-02-27T05:34:12.742Z,0
2018-02-27T05:34:53.247Z,0
2018-02-27T05:35:33.756Z,0
2018-02-27T05:36:14.249Z,0
2018-02-27T05:36:54.764Z,0
2018-02-27T05:37:35.275Z,0
2018-02-27T05:38:15.777Z,0
2018-02-27T05:38:56.287Z,0
2018-02-27T05:39:36.804Z,0
2018-02-27T05:40:17.306Z,0
2018-02-27T05:40:57.826Z,0
2018-02-27T05:41:38.350Z,0
2018-02-27T05:42:18.848Z,0
2018-02-27T05:42:59.364Z,0
2018-02-27T05:43:39.903Z,0
2018-02-27T05:44:20.446Z,0
2018-02-27T05:45:00.929Z,0
2018-02-27T05:45:41.429Z,0
2018-02-27T05:46:21.948Z,0
2018-02-27T05:47:02.448Z,0
2018-02-27T05:47:42.967Z,0
2018-02-27T05:48:23.485Z,0
2018-02-27T05:49:03.999Z,0
2018-02-27T05:49:44.512Z,0
2018-02-27T05:50:25.017Z,0
2018-02-27T05:51:05.552Z,0
2018-02-27T05:51:46.055Z,0
2018-02-27T05:52:26.584Z,0
2018-02-27T05:53:07.088Z,0
2018-02-27T05:53:47.609Z,0
2018-02-27T05:54:28.124Z,0
2018-02-27T05:55:08.637Z,0
2018-02-27T05:55:49.150Z,0
2018-02-27T05:56:29.669Z,0
2018-02-27T05:57:10.186Z,0
2018-02-27T05:57:50.705Z,0
2018-02-27T05:58:31.228Z,0
2018-02-27T05:59:11.725Z,0
2018-02-27T05:59:52.301Z,0
2018-02-27T06:00:32.752Z,0
2018-02-27T06:01:13.261Z,0
2018-02-27T06:01:53.775Z,0
2018-02-27T06:02:34.271Z,0
2018-02-27T06:03:14.786Z,0
2018-02-27T06:03:55.314Z,0
2018-02-27T06:04:35.832Z,0
2018-02-27T06:05:16.359Z,0
2018-02-27T06:05:56.858Z,0
2018-02-27T06:06:37.366Z,0
2018-02-27T06:07:17.891Z,0
2018-02-27T06:07:58.399Z,0
2018-02-27T06:08:38.902Z,0
2018-02-27T06:09:19.410Z,0
2018-02-27T06:09:59.923Z,0
2018-02-27T06:10:40.448Z,0
2018-02-27T06:11:20.963Z,0
2018-02-27T06:12:01.470Z,5
2018-02-27T06:12:41.999Z,5
2018-02-27T06:13:22.524Z,5
2018-02-27T06:14:03.026Z,5
2018-02-27T06:14:43.534Z,5
2018-02-27T06:15:24.040Z,5
2018-02-27T06:16:04.566Z,5
2018-02-27T06:16:45.075Z,5
2018-02-27T06:17:25.571Z,5
2018-02-27T06:18:06.070Z,5
2018-02-27T06:18:46.589Z,5
2018-02-27T06:19:27.102Z,10
2018-02-27T06:20:07.605Z,10
2018-02-27T06:20:48.110Z,10
2018-02-27T06:21:31.121Z,10
2018-02-27T06:22:11.670Z,10
2018-02-27T06:22:52.168Z,10
2018-02-27T06:23:35.684Z,10
2018-02-27T06:24:15.493Z,10
2018-02-27T06:24:56.010Z,10
2018-02-27T06:25:36.548Z,10
2018-02-27T06:26:17.061Z,10
2018-02-27T06:26:57.567Z,10
2018-02-27T06:27:38.096Z,10
2018-02-27T06:28:18.591Z,10
2018-02-27T06:28:59.096Z,10
2018-02-27T06:29:39.589Z,10
2018-02-27T06:30:20.107Z,10
2018-02-27T06:31:00.626Z,10
2018-02-27T06:31:41.130Z,10
2018-02-27T06:32:21.649Z,10
2018-02-27T06:33:02.167Z,10
2018-02-27T06:33:42.673Z,10
2018-02-27T06:34:23.235Z,10
2018-02-27T06:35:03.750Z,10
2018-02-27T06:35:44.251Z,15
2018-02-27T06:36:24.764Z,15
2018-02-27T06:37:05.281Z,15
2018-02-27T06:37:45.788Z,15
2018-02-27T06:38:26.298Z,15
2018-02-27T06:39:06.816Z,15
2018-02-27T06:39:47.353Z,15
2018-02-27T06:40:27.865Z,20
2018-02-27T06:41:08.371Z,20
2018-02-27T06:41:48.887Z,20
2018-02-27T06:42:29.393Z,20
2018-02-27T06:43:09.888Z,20
2018-02-27T06:43:50.402Z,20
2018-02-27T06:44:30.906Z,20
2018-02-27T06:45:11.415Z,25
2018-02-27T06:45:52.002Z,25
2018-02-27T06:46:32.588Z,25
2018-02-27T06:47:13.088Z,25
2018-02-27T06:47:53.611Z,25
2018-02-27T06:48:34.116Z,30
2018-02-27T06:49:14.620Z,30
2018-02-27T06:49:55.135Z,30
2018-02-27T06:50:35.646Z,30
2018-02-27T06:51:16.147Z,30
2018-02-27T06:51:56.660Z,30
2018-02-27T06:52:37.171Z,35
2018-02-27T06:53:17.680Z,35
2018-02-27T06:53:58.176Z,35
2018-02-27T06:54:38.678Z,35
2018-02-27T06:55:19.185Z,35
2018-02-27T06:55:59.805Z,40
2018-02-27T06:56:40.372Z,40
2018-02-27T06:57:20.909Z,40
2018-02-27T06:58:01.406Z,40
2018-02-27T06:58:41.913Z,40
2018-02-27T06:59:22.442Z,40
2018-02-27T07:00:02.964Z,40
2018-02-27T07:00:43.482Z,45
2018-02-27T07:01:24.003Z,45
2018-02-27T07:02:04.503Z,45
2018-02-27T07:02:45.029Z,45
2018-02-27T07:03:25.558Z,45
2018-02-27T07:04:06.258Z,45
2018-02-27T07:04:46.746Z,50
2018-02-27T07:05:27.245Z,50
2018-02-27T07:06:07.748Z,50
2018-02-27T07:06:48.262Z,55
2018-02-27T07:07:28.911Z,55
2018-02-27T07:08:09.330Z,60
2018-02-27T07:08:49.842Z,55
2018-02-27T07:09:30.356Z,60
2018-02-27T07:10:10.964Z,60
2018-02-27T07:10:51.557Z,65
2018-02-27T07:11:32.091Z,65
2018-02-27T07:12:12.613Z,65
2018-02-27T07:12:53.100Z,70
2018-02-27T07:13:33.728Z,70
2018-02-27T07:14:14.271Z,70
2018-02-27T07:14:54.777Z,70
2018-02-27T07:15:35.304Z,70
2018-02-27T07:16:15.804Z,70
2018-02-27T07:16:56.314Z,70
2018-02-27T07:17:36.839Z,70
2018-02-27T07:18:17.346Z,70
2018-02-27T07:18:57.878Z,70
2018-02-27T07:19:38.387Z,70
2018-02-27T07:20:18.904Z,70
2018-02-27T07:20:59.389Z,70
2018-02-27T07:21:39.915Z,70
2018-02-27T07:22:20.420Z,70
2018-02-27T07:23:00.974Z,75
2018-02-27T07:23:41.491Z,75
2018-02-27T07:24:22.026Z,75
2018-02-27T07:25:02.572Z,70
2018-02-27T07:25:43.102Z,70
2018-02-27T07:26:23.621Z,70
2018-02-27T07:27:04.157Z,70
2018-02-27T07:27:44.677Z,70
2018-02-27T07:28:25.232Z,70
2018-02-27T07:29:05.752Z,70
2018-02-27T07:29:46.258Z,75
2018-02-27T07:30:26.774Z,80
2018-02-27T07:31:07.282Z,80
2018-02-27T07:31:47.798Z,80
2018-02-27T07:32:28.325Z,80
2018-02-27T07:33:08.831Z,80
2018-02-27T07:33:49.345Z,80
2018-02-27T07:34:29.894Z,80
2018-02-27T07:35:10.403Z,85
2018-02-27T07:35:50.920Z,85
2018-02-27T07:36:31.432Z,80
2018-02-27T07:37:11.936Z,85
2018-02-27T07:37:52.435Z,85
2018-02-27T07:38:32.953Z,85
2018-02-27T07:39:13.476Z,80
2018-02-27T07:39:53.988Z,85
2018-02-27T07:40:34.493Z,85
2018-02-27T07:41:15.042Z,85
2018-02-27T07:41:55.509Z,85
2018-02-27T07:42:36.021Z,85
2018-02-27T07:43:16.558Z,90
2018-02-27T07:43:57.083Z,90
2018-02-27T07:44:37.608Z,90
2018-02-27T07:45:18.118Z,90
2018-02-27T07:45:58.643Z,90
2018-02-27T07:46:39.185Z,90
2018-02-27T07:47:19.837Z,95
2018-02-27T07:48:00.300Z,95
2018-02-27T07:48:40.798Z,95
2018-02-27T07:49:21.326Z,95
2018-02-27T07:50:01.836Z,95
2018-02-27T07:50:42.350Z,100
2018-02-27T07:51:22.862Z,100
2018-02-27T07:52:03.386Z,100
2018-02-27T07:52:43.883Z,100
2018-02-27T07:53:24.387Z,100
2018-02-27T07:54:05.012Z,100
2018-02-27T07:54:45.519Z,100
2018-02-27T07:55:26.042Z,100
2018-02-27T07:56:06.535Z,100
2018-02-27T07:56:47.083Z,105
2018-02-27T07:59:02.196Z,105
2018-02-27T07:59:42.691Z,105
2018-02-27T08:00:23.210Z,105
2018-02-27T08:01:03.712Z,105
2018-02-27T08:01:44.293Z,105
2018-02-27T08:02:24.779Z,105
2018-02-27T08:03:05.324Z,110
2018-02-27T08:03:45.870Z,105
2018-02-27T08:04:26.375Z,105
2018-02-27T08:05:06.914Z,105
2018-02-27T08:05:47.425Z,105
2018-02-27T08:06:27.934Z,105
2018-02-27T08:07:08.458Z,105
2018-02-27T08:07:48.996Z,105
2018-02-27T08:08:29.517Z,105
2018-02-27T08:09:10.100Z,105
2018-02-27T08:09:50.626Z,105
2018-02-27T08:10:31.159Z,105
2018-02-27T08:11:11.658Z,105
2018-02-27T08:11:52.156Z,105
2018-02-27T08:12:32.688Z,105
2018-02-27T08:13:13.195Z,105
2018-02-27T08:13:53.704Z,105
2018-02-27T08:14:34.228Z,95
2018-02-27T08:15:14.698Z,110
2018-02-27T08:15:55.194Z,105
2018-02-27T08:16:35.705Z,105
2018-02-27T08:17:16.206Z,100
2018-02-27T08:17:56.734Z,95
2018-02-27T08:18:37.237Z,100
2018-02-27T08:19:17.761Z,105
2018-02-27T08:19:58.252Z,110
2018-02-27T08:20:38.792Z,110
2018-02-27T08:21:19.290Z,115
2018-02-27T08:21:59.811Z,115
2018-02-27T08:22:40.308Z,110
2018-02-27T08:23:20.810Z,110
2018-02-27T08:24:01.316Z,110
2018-02-27T08:24:41.824Z,110
2018-02-27T08:25:22.345Z,110
2018-02-27T08:26:02.859Z,110
2018-02-27T08:26:43.367Z,110
2018-02-27T08:27:23.864Z,105
2018-02-27T08:28:04.365Z,105
2018-02-27T08:28:44.875Z,110
2018-02-27T08:29:25.394Z,110
2018-02-27T08:30:05.930Z,110
2018-02-27T08:30:46.442Z,110
2018-02-27T08:31:26.974Z,120
2018-02-27T08:32:08.630Z,125
2018-02-27T08:32:50.428Z,115
2018-02-27T08:33:32.818Z,115
2018-02-27T08:34:14.441Z,115
2018-02-27T08:34:54.871Z,110
2018-02-27T08:35:35.386Z,110
2018-02-27T08:36:15.913Z,110
2018-02-27T08:36:56.414Z,110
2018-02-27T08:37:36.930Z,115
2018-02-27T08:38:17.428Z,115
2018-02-27T08:38:57.924Z,115
2018-02-27T08:39:38.428Z,115
2018-02-27T08:40:18.934Z,115
2018-02-27T08:40:59.438Z,110
2018-02-27T08:41:39.938Z,110
2018-02-27T08:42:20.441Z,110
2018-02-27T08:43:00.963Z,105
2018-02-27T08:43:41.503Z,105
2018-02-27T08:44:22.019Z,105
2018-02-27T08:45:02.533Z,110
2018-02-27T08:45:43.093Z,115
2018-02-27T08:46:23.591Z,115
2018-02-27T08:47:04.103Z,110
2018-02-27T08:47:44.635Z,115
2018-02-27T08:48:25.170Z,115
2018-02-27T08:49:05.672Z,115
2018-02-27T08:49:46.184Z,115
2018-02-27T08:50:26.695Z,115
2018-02-27T08:51:07.216Z,120
2018-02-27T08:51:47.710Z,120
2018-02-27T08:52:28.238Z,120
2018-02-27T08:53:08.743Z,120
2018-02-27T08:53:49.341Z,125
2018-02-27T08:54:29.863Z,125
2018-02-27T08:55:10.363Z,120
2018-02-27T08:55:50.890Z,115
2018-02-27T08:56:31.399Z,115
2018-02-27T08:57:11.894Z,115
2018-02-27T08:57:52.389Z,115
2018-02-27T08:58:32.913Z,115
2018-02-27T08:59:13.418Z,115
2018-02-27T08:59:53.915Z,115
2018-02-27T09:00:34.442Z,115
2018-02-27T09:01:14.954Z,120
2018-02-27T09:01:55.466Z,115
2018-02-27T09:02:35.979Z,115
2018-02-27T09:03:16.524Z,115
2018-02-27T09:03:57.041Z,115
2018-02-27T09:04:37.546Z,120
2018-02-27T09:05:18.041Z,120
2018-02-27T09:05:58.556Z,120
2018-02-27T09:06:39.088Z,120
2018-02-27T09:07:20.137Z,120
2018-02-27T09:08:00.149Z,125
2018-02-27T09:08:40.666Z,125
2018-02-27T09:09:21.195Z,125
2018-02-27T09:10:01.703Z,125
2018-02-27T09:10:42.208Z,125
2018-02-27T09:11:22.720Z,125
2018-02-27T09:12:03.235Z,125
2018-02-27T09:12:43.737Z,125
2018-02-27T09:13:24.238Z,125
2018-02-27T09:14:04.744Z,125
2018-02-27T09:14:45.333Z,125
2018-02-27T09:15:25.751Z,130
2018-02-27T09:16:06.312Z,125
2018-02-27T09:16:46.821Z,125
2018-02-27T09:17:27.336Z,130
2018-02-27T09:18:07.881Z,130
2018-02-27T09:18:48.394Z,130
2018-02-27T09:19:28.960Z,135
2018-02-27T09:20:09.459Z,135
2018-02-27T09:20:49.981Z,140
2018-02-27T09:21:30.487Z,145
2018-02-27T09:22:10.996Z,150
2018-02-27T09:22:51.509Z,155
2018-02-27T09:23:32.002Z,155
2018-02-27T09:24:12.520Z,155
2018-02-27T09:24:53.050Z,155
2018-02-27T09:25:33.605Z,155
2018-02-27T09:26:14.060Z,155
2018-02-27T09:26:54.573Z,150
2018-02-27T09:27:35.097Z,150
2018-02-27T09:28:15.953Z,150
2018-02-27T09:28:56.454Z,150
2018-02-27T09:29:36.968Z,150
2018-02-27T09:30:17.490Z,150
2018-02-27T09:30:57.992Z,150
2018-02-27T09:31:38.504Z,150
2018-02-27T09:32:19.023Z,145
2018-02-27T09:32:59.546Z,140
2018-02-27T09:33:40.064Z,140
2018-02-27T09:34:20.581Z,140
2018-02-27T09:35:01.136Z,140
2018-02-27T09:35:41.605Z,140
2018-02-27T09:36:22.110Z,140
2018-02-27T09:37:02.611Z,145
2018-02-27T09:37:43.119Z,145
2018-02-27T09:38:23.690Z,150
2018-02-27T09:39:04.140Z,150
2018-02-27T09:39:44.648Z,150
2018-02-27T09:40:25.161Z,150
2018-02-27T09:41:05.681Z,150
2018-02-27T09:41:46.205Z,150
2018-02-27T09:42:26.712Z,145
2018-02-27T09:43:07.222Z,140
2018-02-27T09:43:47.732Z,140
2018-02-27T09:44:28.243Z,145
2018-02-27T09:45:08.749Z,145
2018-02-27T09:45:49.285Z,145
2018-02-27T09:46:29.789Z,150
2018-02-27T09:47:10.316Z,150
2018-02-27T09:47:50.830Z,155
2018-02-27T09:48:31.351Z,155
2018-02-27T09:49:11.868Z,150
2018-02-27T09:49:52.379Z,140
2018-02-27T09:50:32.886Z,145